createdAt,value
2023-03-27T00:03:35.824Z,101366.48
2023-03-27T00:06:11.586Z,101367.77
2023-03-27T00:08:39.766Z,101373.36
2023-03-27T00:11:08.697Z,101373.58
2023-03-27T00:13:49.410Z,101374.46
2023-03-27T00:16:21.287Z,101376.27
2023-03-27T00:18:50.273Z,101375.40
2023-03-27T00:21:19.282Z,101375.23
2023-03-27T00:23:48.970Z,101378.11
2023-03-27T00:26:17.119Z,101381.36
2023-03-27T00:28:45.342Z,101379.58
2023-03-27T00:31:16.000Z,101384.60
2023-03-27T00:33:44.946Z,101386.23
2023-03-27T00:36:13.181Z,101390.55
2023-03-27T00:38:41.359Z,101392.88
2023-03-27T00:41:09.919Z,101395.95
2023-03-27T00:43:42.298Z,101400.26
2023-03-27T00:46:41.134Z,101397.58
2023-03-27T00:49:13.210Z,101399.21
2023-03-27T00:51:46.392Z,101395.64
2023-03-27T00:54:18.132Z,101392.97
2023-03-27T00:56:47.522Z,101394.95
2023-03-27T00:59:19.914Z,101394.80
2023-03-27T01:01:49.367Z,101398.92
2023-03-27T01:04:19.870Z,101404.13
2023-03-27T01:06:51.468Z,101404.66
2023-03-27T01:09:21.395Z,101408.41
2023-03-27T01:12:25.401Z,101406.27
2023-03-27T01:15:05.226Z,101408.25
2023-03-27T01:17:39.092Z,101408.24
2023-03-27T01:20:32.708Z,101412.56
2023-03-27T01:23:58.752Z,101415.44
2023-03-27T01:26:56.948Z,101414.04
2023-03-27T01:29:47.079Z,101416.20
2023-03-27T01:32:57.209Z,101419.45
2023-03-27T01:35:44.353Z,101417.84
2023-03-27T01:38:21.965Z,101411.75
2023-03-27T01:41:14.192Z,101412.11
2023-03-27T01:43:48.902Z,101409.42
2023-03-27T01:46:24.293Z,101411.60
2023-03-27T01:49:23.609Z,101411.23
2023-03-27T01:52:03.540Z,101411.27
2023-03-27T01:54:37.573Z,101412.69
2023-03-27T01:57:21.062Z,101412.69
2023-03-27T02:00:18.690Z,101411.08
2023-03-27T02:03:04.809Z,101409.27
2023-03-27T02:05:39.280Z,101406.92
2023-03-27T02:08:20.795Z,101404.60
2023-03-27T02:10:55.945Z,101402.45
2023-03-27T02:13:51.170Z,101403.51
2023-03-27T02:16:24.650Z,101396.70
2023-03-27T02:18:59.135Z,101392.40
2023-03-27T02:21:27.823Z,101389.89
2023-03-27T02:23:57.281Z,101387.73
2023-03-27T02:26:25.958Z,101389.52
2023-03-27T02:29:05.435Z,101392.91
2023-03-27T02:31:48.604Z,101395.23
2023-03-27T02:34:38.554Z,101398.42
2023-03-27T02:37:34.302Z,101399.32
2023-03-27T02:40:39.994Z,101395.89
2023-03-27T02:43:18.349Z,101393.41
2023-03-27T02:45:56.809Z,101399.67
2023-03-27T02:48:33.949Z,101403.05
2023-03-27T02:51:22.721Z,101402.88
2023-03-27T02:54:02.133Z,101403.58
2023-03-27T02:56:33.860Z,101402.52
2023-03-27T02:59:08.491Z,101402.68
2023-03-27T03:01:39.466Z,101408.05
2023-03-27T03:04:36.319Z,101405.89
2023-03-27T03:07:05.348Z,101408.39
2023-03-27T03:09:34.350Z,101409.27
2023-03-27T03:12:09.568Z,101414.40
2023-03-27T03:14:41.077Z,101413.68
2023-03-27T03:17:09.364Z,101421.69
2023-03-27T03:19:38.176Z,101423.63
2023-03-27T03:22:06.667Z,101424.13
2023-03-27T03:24:35.250Z,101429.64
2023-03-27T03:27:04.774Z,101427.29
2023-03-27T03:29:33.239Z,101428.86
2023-03-27T03:32:02.777Z,101428.83
2023-03-27T03:34:30.933Z,101431.48
2023-03-27T03:37:02.329Z,101434.13
2023-03-27T03:39:31.198Z,101436.05
2023-03-27T03:41:59.460Z,101434.77
2023-03-27T03:44:28.026Z,101436.89
2023-03-27T03:46:56.407Z,101437.77
2023-03-27T03:49:25.337Z,101442.73
2023-03-27T03:52:03.324Z,101440.04
2023-03-27T03:54:32.938Z,101447.16
2023-03-27T03:57:01.159Z,101446.59
2023-03-27T03:59:29.464Z,101451.21
2023-03-27T04:01:58.476Z,101454.20
2023-03-27T04:04:27.290Z,101458.05
2023-03-27T04:06:55.330Z,101460.34
2023-03-27T04:09:23.372Z,101462.61
2023-03-27T04:11:51.668Z,101465.06
2023-03-27T04:14:19.933Z,101465.73
2023-03-27T04:16:48.391Z,101471.75
2023-03-27T04:19:17.455Z,101470.64
2023-03-27T04:21:45.598Z,101476.11
2023-03-27T04:24:14.282Z,101481.23
2023-03-27T04:26:42.678Z,101482.42
2023-03-27T04:29:10.923Z,101488.27
2023-03-27T04:31:39.813Z,101489.95
2023-03-27T04:34:07.992Z,101490.23
2023-03-27T04:36:36.213Z,101494.29
2023-03-27T04:39:04.511Z,101500.35
2023-03-27T04:41:32.987Z,101502.34
2023-03-27T04:44:01.156Z,101506.41
2023-03-27T04:46:29.912Z,101513.71
2023-03-27T04:48:58.278Z,101514.05
2023-03-27T04:51:26.372Z,101516.52
2023-03-27T04:53:54.949Z,101523.27
2023-03-27T04:56:24.241Z,101526.11
2023-03-27T04:58:52.333Z,101530.56
2023-03-27T05:01:21.308Z,101532.48
2023-03-27T05:03:49.720Z,101537.13
2023-03-27T05:06:18.322Z,101534.77
2023-03-27T05:08:46.825Z,101535.65
2023-03-27T05:11:15.266Z,101540.77
2023-03-27T05:13:44.035Z,101538.09
2023-03-27T05:16:13.563Z,101544.66
2023-03-27T05:18:42.801Z,101547.14
2023-03-27T05:21:12.604Z,101552.11
2023-03-27T05:23:41.068Z,101551.91
2023-03-27T05:26:09.522Z,101546.88
2023-03-27T05:28:39.420Z,101547.39
2023-03-27T05:31:07.803Z,101549.31
2023-03-27T05:33:36.421Z,101548.88
2023-03-27T05:36:05.100Z,101552.95
2023-03-27T05:38:33.168Z,101556.81
2023-03-27T05:41:01.652Z,101557.29
2023-03-27T05:43:29.771Z,101557.23
2023-03-27T05:45:58.088Z,101560.21
2023-03-27T05:48:27.100Z,101565.12
2023-03-27T05:50:55.904Z,101567.02
2023-03-27T05:53:28.445Z,101572.48
2023-03-27T05:56:02.850Z,101574.03
2023-03-27T05:58:32.730Z,101578.43
2023-03-27T06:01:04.975Z,101575.35
2023-03-27T06:03:36.814Z,101579.04
2023-03-27T06:06:12.816Z,101585.91
2023-03-27T06:08:41.028Z,101584.95
2023-03-27T06:11:11.370Z,101590.74
2023-03-27T06:13:40.064Z,101588.90
2023-03-27T06:16:08.974Z,101590.15
2023-03-27T06:18:37.693Z,101593.48
2023-03-27T06:21:06.284Z,101598.91
2023-03-27T06:23:34.454Z,101602.75
2023-03-27T06:26:02.845Z,101611.05
2023-03-27T06:28:31.323Z,101614.05
2023-03-27T06:31:00.015Z,101624.24
2023-03-27T06:33:28.193Z,101625.95
2023-03-27T06:35:57.284Z,101630.64
2023-03-27T06:38:31.210Z,101630.30
2023-03-27T06:41:00.244Z,101633.40
2023-03-27T06:43:28.597Z,101634.21
2023-03-27T06:45:57.451Z,101639.23
2023-03-27T06:48:26.227Z,101643.80
2023-03-27T06:50:55.229Z,101647.38
2023-03-27T06:53:27.759Z,101653.80
2023-03-27T06:55:58.261Z,101655.41
2023-03-27T06:58:26.758Z,101666.98
2023-03-27T07:00:54.960Z,101671.40
2023-03-27T07:03:23.585Z,101669.95
2023-03-27T07:05:52.341Z,101674.05
2023-03-27T07:08:24.755Z,101679.77
2023-03-27T07:13:26.432Z,101680.83
2023-03-27T07:15:54.642Z,101680.23
2023-03-27T07:18:23.684Z,101680.48
2023-03-27T07:20:52.273Z,101684.42
2023-03-27T07:23:20.505Z,101687.16
2023-03-27T07:25:49.681Z,101686.96
2023-03-27T07:28:18.603Z,101689.31
2023-03-27T07:30:47.057Z,101691.51
2023-03-27T07:33:15.621Z,101689.98
2023-03-27T07:35:45.859Z,101694.83
2023-03-27T07:38:14.932Z,101701.55
2023-03-27T07:40:44.798Z,101705.56
2023-03-27T07:43:13.209Z,101709.27
2023-03-27T07:45:42.353Z,101710.05
2023-03-27T07:48:14.902Z,101712.02
2023-03-27T07:50:43.623Z,101713.24
2023-03-27T07:53:33.462Z,101715.09
2023-03-27T07:56:00.772Z,101717.33
2023-03-27T07:58:29.032Z,101713.99
2023-03-27T08:01:01.064Z,101713.59
2023-03-27T08:03:30.423Z,101714.38
2023-03-27T08:06:00.584Z,101716.31
2023-03-27T08:08:29.621Z,101717.61
2023-03-27T08:10:59.785Z,101715.23
2023-03-27T08:13:29.327Z,101720.20
2023-03-27T08:16:09.956Z,101722.08
2023-03-27T08:18:39.164Z,101723.00
2023-03-27T08:21:08.922Z,101726.84
2023-03-27T08:23:37.749Z,101729.52
2023-03-27T08:26:07.364Z,101728.96
2023-03-27T08:28:37.619Z,101732.48
2023-03-27T08:31:13.077Z,101736.19
2023-03-27T08:33:42.691Z,101742.73
2023-03-27T08:36:11.516Z,101739.48
2023-03-27T08:38:41.754Z,101738.84
2023-03-27T08:41:28.268Z,101739.70
2023-03-27T08:44:00.425Z,101742.77
2023-03-27T08:46:37.604Z,101742.98
2023-03-27T08:49:16.612Z,101743.05
2023-03-27T08:51:56.122Z,101748.34
2023-03-27T08:54:34.319Z,101750.44
2023-03-27T08:57:16.864Z,101752.84
2023-03-27T08:59:45.514Z,101755.99
2023-03-27T09:02:41.761Z,101755.10
2023-03-27T09:05:26.020Z,101751.04
2023-03-27T09:08:05.752Z,101756.87
2023-03-27T09:10:48.515Z,101751.77
2023-03-27T09:13:30.304Z,101750.52
2023-03-27T09:16:07.810Z,101754.12
2023-03-27T09:18:41.395Z,101755.42
2023-03-27T09:21:49.212Z,101759.61
2023-03-27T09:24:46.947Z,101766.11
2023-03-27T09:27:21.196Z,101762.75
2023-03-27T09:30:15.090Z,101761.63
2023-03-27T09:32:43.550Z,101760.59
2023-03-27T09:35:15.748Z,101759.00
2023-03-27T09:37:44.718Z,101766.38
2023-03-27T09:40:26.065Z,101763.91
2023-03-27T09:42:55.003Z,101761.50
2023-03-27T09:45:23.260Z,101764.38
2023-03-27T09:48:02.234Z,101765.07
2023-03-27T09:50:35.649Z,101762.20
2023-03-27T09:53:13.607Z,101766.57
2023-03-27T09:56:11.964Z,101766.91
2023-03-27T09:58:49.705Z,101766.66
2023-03-27T10:01:18.823Z,101763.94
2023-03-27T10:03:53.720Z,101764.75
2023-03-27T10:06:38.891Z,101768.05
2023-03-27T10:09:28.762Z,101761.95
2023-03-27T10:12:23.347Z,101757.05
2023-03-27T10:14:52.800Z,101753.43
2023-03-27T10:17:33.623Z,101753.23
2023-03-27T10:20:17.821Z,101751.83
2023-03-27T10:22:55.137Z,101751.77
2023-03-27T10:25:33.226Z,101744.95
2023-03-27T10:28:09.368Z,101743.93
2023-03-27T10:30:38.339Z,101742.84
2023-03-27T10:33:07.488Z,101737.13
2023-03-27T10:35:39.878Z,101735.29
2023-03-27T10:38:14.588Z,101732.94
2023-03-27T10:40:48.738Z,101723.61
2023-03-27T10:43:25.336Z,101728.45
2023-03-27T10:46:04.512Z,101730.82
2023-03-27T10:48:57.695Z,101728.77
2023-03-27T10:51:56.686Z,101732.90
2023-03-27T10:55:07.871Z,101726.17
2023-03-27T10:57:38.151Z,101733.02
2023-03-27T11:00:19.817Z,101728.30
2023-03-27T11:02:54.438Z,101724.58
2023-03-27T11:05:28.189Z,101723.16
2023-03-27T11:08:09.484Z,101723.53
2023-03-27T11:10:42.941Z,101713.58
2023-03-27T11:13:42.914Z,101714.14
2023-03-27T11:16:23.984Z,101705.50
2023-03-27T11:19:02.403Z,101704.33
2023-03-27T11:21:42.237Z,101710.93
2023-03-27T11:24:38.973Z,101714.17
2023-03-27T11:27:24.529Z,101703.08
2023-03-27T11:30:18.465Z,101699.33
2023-03-27T11:33:01.783Z,101695.50
2023-03-27T11:35:38.532Z,101688.71
2023-03-27T11:38:30.245Z,101692.92
2023-03-27T11:40:59.084Z,101694.94
2023-03-27T11:43:28.292Z,101697.92
2023-03-27T11:46:31.957Z,101696.48
2023-03-27T11:49:42.390Z,101681.73
2023-03-27T11:52:44.669Z,101684.27
2023-03-27T11:55:32.566Z,101683.29
2023-03-27T11:58:52.186Z,101684.45
2023-03-27T12:01:52.547Z,101688.14
2023-03-27T12:05:06.007Z,101697.98
2023-03-27T12:07:52.293Z,101686.77
2023-03-27T12:10:35.232Z,101689.86
2023-03-27T12:13:40.544Z,101686.98
2023-03-27T12:16:17.050Z,101686.67
2023-03-27T12:19:28.340Z,101687.20
2023-03-27T12:22:22.821Z,101692.36
2023-03-27T12:25:20.207Z,101690.51
2023-03-27T12:28:33.571Z,101695.49
2023-03-27T12:31:31.882Z,101695.34
2023-03-27T12:34:39.960Z,101703.09
2023-03-27T12:37:13.012Z,101700.45
2023-03-27T12:39:54.244Z,101699.01
2023-03-27T12:42:48.467Z,101709.08
2023-03-27T12:45:23.206Z,101708.41
2023-03-27T12:48:17.997Z,101709.19
2023-03-27T12:50:55.620Z,101709.48
2023-03-27T12:53:29.774Z,101715.16
2023-03-27T12:56:10.570Z,101716.39
2023-03-27T12:58:40.252Z,101716.33
2023-03-27T13:01:10.931Z,101714.75
2023-03-27T13:04:01.453Z,101716.55
2023-03-27T13:07:11.616Z,101721.10
2023-03-27T13:09:54.588Z,101719.20
2023-03-27T13:12:42.453Z,101716.15
2023-03-27T13:15:23.020Z,101715.14
2023-03-27T13:18:09.703Z,101709.02
2023-03-27T13:20:46.698Z,101715.83
2023-03-27T13:23:38.221Z,101712.62
2023-03-27T13:26:30.925Z,101710.81
2023-03-27T13:28:59.824Z,101708.11
2023-03-27T13:32:02.808Z,101705.59
2023-03-27T13:34:42.147Z,101705.27
2023-03-27T13:37:10.356Z,101705.29
2023-03-27T13:39:47.949Z,101708.09
2023-03-27T13:42:44.946Z,101705.73
2023-03-27T13:45:22.397Z,101706.23
2023-03-27T13:48:23.978Z,101708.40
2023-03-27T13:51:12.271Z,101710.05
2023-03-27T13:53:47.063Z,101712.23
2023-03-27T13:56:41.189Z,101712.59
2023-03-27T13:59:44.058Z,101710.80
2023-03-27T14:02:15.298Z,101701.85
2023-03-27T14:05:19.495Z,101696.64
2023-03-27T14:08:27.801Z,101698.96
2023-03-27T14:11:35.593Z,101697.90
2023-03-27T14:14:42.684Z,101691.63
2023-03-27T14:17:35.515Z,101688.76
2023-03-27T14:20:40.683Z,101687.16
2023-03-27T14:23:28.519Z,101685.19
2023-03-27T14:26:05.899Z,101690.04
2023-03-27T14:28:55.607Z,101687.87
2023-03-27T14:31:26.768Z,101685.55
2023-03-27T14:34:00.668Z,101683.39
2023-03-27T14:36:31.304Z,101684.80
2023-03-27T14:39:20.037Z,101685.54
2023-03-27T14:41:59.642Z,101688.23
2023-03-27T14:44:31.832Z,101683.89
2023-03-27T14:47:13.343Z,101685.00
2023-03-27T14:49:48.823Z,101678.55
2023-03-27T14:52:25.770Z,101674.60
2023-03-27T14:54:55.746Z,101683.57
2023-03-27T14:57:26.863Z,101683.38
2023-03-27T14:59:56.863Z,101686.57
2023-03-27T15:02:34.355Z,101681.71
2023-03-27T15:05:13.368Z,101675.25
2023-03-27T15:07:41.731Z,101679.57
2023-03-27T15:10:20.917Z,101681.95
2023-03-27T15:12:49.417Z,101681.76
2023-03-27T15:15:37.868Z,101680.48
2023-03-27T15:19:02.101Z,101679.74
2023-03-27T15:21:44.701Z,101675.56
2023-03-27T15:24:17.515Z,101680.06
2023-03-27T15:26:50.520Z,101684.89
2023-03-27T15:29:45.141Z,101689.49
2023-03-27T15:32:16.298Z,101695.04
2023-03-27T15:34:55.247Z,101686.08
2023-03-27T15:37:26.033Z,101681.58
2023-03-27T15:40:02.535Z,101683.88
2023-03-27T15:42:44.579Z,101688.53
2023-03-27T15:45:15.239Z,101688.20
2023-03-27T15:47:44.504Z,101687.69
2023-03-27T15:50:20.265Z,101682.88
2023-03-27T15:52:51.427Z,101684.87
2023-03-27T15:55:37.463Z,101683.44
2023-03-27T15:58:23.197Z,101686.14
2023-03-27T16:00:58.255Z,101691.48
2023-03-27T16:03:27.685Z,101693.64
2023-03-27T16:05:58.821Z,101686.95
2023-03-27T16:08:36.525Z,101682.36
2023-03-27T16:11:05.840Z,101683.67
2023-03-27T16:14:01.712Z,101684.23
2023-03-27T16:16:32.689Z,101693.20
2023-03-27T16:19:12.376Z,101689.13
2023-03-27T16:21:55.171Z,101686.45
2023-03-27T16:24:23.324Z,101685.14
2023-03-27T16:26:53.196Z,101682.80
2023-03-27T16:29:22.806Z,101687.05
2023-03-27T16:31:50.996Z,101695.90
2023-03-27T16:34:22.232Z,101702.90
2023-03-27T16:36:52.172Z,101705.80
2023-03-27T16:39:20.958Z,101703.42
2023-03-27T16:41:49.032Z,101697.36
2023-03-27T16:44:17.631Z,101705.12
2023-03-27T16:46:45.947Z,101708.30
2023-03-27T16:49:14.079Z,101715.79
2023-03-27T16:51:43.311Z,101717.34
2023-03-27T16:54:11.488Z,101714.48
2023-03-27T16:56:40.702Z,101711.33
2023-03-27T16:59:09.038Z,101712.84
2023-03-27T17:01:37.257Z,101713.28
2023-03-27T17:04:05.624Z,101716.52
2023-03-27T17:06:33.882Z,101717.48
2023-03-27T17:09:02.044Z,101719.19
2023-03-27T17:11:30.858Z,101711.98
2023-03-27T17:13:59.123Z,101717.60
2023-03-27T17:16:27.612Z,101715.82
2023-03-27T17:18:56.077Z,101715.68
2023-03-27T17:21:25.987Z,101721.70
2023-03-27T17:23:54.790Z,101717.41
2023-03-27T17:26:23.870Z,101720.19
2023-03-27T17:28:52.766Z,101721.96
2023-03-27T17:31:21.292Z,101725.34
2023-03-27T17:33:50.152Z,101729.63
2023-03-27T17:36:29.823Z,101725.21
2023-03-27T17:39:03.306Z,101725.58
2023-03-27T17:41:32.663Z,101719.61
2023-03-27T17:44:00.758Z,101720.03
2023-03-27T17:46:29.215Z,101721.74
2023-03-27T17:48:57.853Z,101724.14
2023-03-27T17:51:26.494Z,101725.42
2023-03-27T17:53:55.024Z,101726.64
2023-03-27T17:56:23.356Z,101730.86
2023-03-27T17:58:51.471Z,101728.99
2023-03-27T18:01:22.240Z,101729.41
2023-03-27T18:03:51.928Z,101729.16
2023-03-27T18:06:20.430Z,101732.39
2023-03-27T18:08:48.650Z,101735.59
2023-03-27T18:11:17.230Z,101736.59
2023-03-27T18:13:45.445Z,101738.92
2023-03-27T18:16:13.540Z,101741.84
2023-03-27T18:18:42.022Z,101741.88
2023-03-27T18:21:10.071Z,101743.67
2023-03-27T18:23:46.562Z,101747.22
2023-03-27T18:26:16.549Z,101753.04
2023-03-27T18:28:45.838Z,101752.64
2023-03-27T18:31:14.439Z,101753.82
2023-03-27T18:33:42.628Z,101754.91
2023-03-27T18:36:11.186Z,101757.38
2023-03-27T18:38:40.906Z,101758.79
2023-03-27T18:41:10.857Z,101763.10
2023-03-27T18:43:38.986Z,101763.63
2023-03-27T18:46:08.076Z,101759.05
2023-03-27T18:48:37.366Z,101759.77
2023-03-27T18:51:06.635Z,101764.06
2023-03-27T18:53:36.427Z,101772.65
2023-03-27T18:56:04.988Z,101779.72
2023-03-27T18:58:35.153Z,101776.96
2023-03-27T19:01:07.909Z,101774.69
2023-03-27T19:03:37.623Z,101765.39
2023-03-27T19:06:08.212Z,101763.27
2023-03-27T19:08:38.143Z,101770.67
2023-03-27T19:11:06.961Z,101774.28
2023-03-27T19:13:36.228Z,101778.38
2023-03-27T19:16:15.202Z,101776.02
2023-03-27T19:18:43.844Z,101771.92
2023-03-27T19:21:12.403Z,101775.33
2023-03-27T19:23:40.610Z,101779.95
2023-03-27T19:26:11.536Z,101779.41
2023-03-27T19:28:39.609Z,101781.59
2023-03-27T19:31:09.568Z,101774.27
2023-03-27T19:33:38.708Z,101773.21
2023-03-27T19:36:07.782Z,101774.79
2023-03-27T19:38:36.159Z,101776.23
2023-03-27T19:41:09.137Z,101779.41
2023-03-27T19:43:37.649Z,101782.09
2023-03-27T19:46:15.666Z,101787.42
2023-03-27T19:48:46.348Z,101785.08
2023-03-27T19:51:14.549Z,101782.58
2023-03-27T19:53:42.771Z,101782.52
2023-03-27T19:56:11.272Z,101781.05
2023-03-27T19:58:39.420Z,101788.19
2023-03-27T20:01:07.920Z,101799.22
2023-03-27T20:03:36.690Z,101798.46
2023-03-27T20:06:06.887Z,101792.58
2023-03-27T20:08:36.869Z,101788.12
2023-03-27T20:11:05.760Z,101787.01
2023-03-27T20:13:42.468Z,101796.80
2023-03-27T20:16:13.958Z,101815.45
2023-03-27T20:18:42.256Z,101818.61
2023-03-27T20:21:11.316Z,101817.38
2023-03-27T20:23:40.873Z,101806.36
2023-03-27T20:26:09.497Z,101800.48
2023-03-27T20:28:38.001Z,101813.17
2023-03-27T20:31:07.093Z,101827.92
2023-03-27T20:33:35.419Z,101838.92
2023-03-27T20:36:03.807Z,101831.48
2023-03-27T20:38:33.152Z,101821.15
2023-03-27T20:41:03.439Z,101811.38
2023-03-27T20:43:33.293Z,101819.05
2023-03-27T20:46:03.476Z,101829.60
2023-03-27T20:48:31.886Z,101836.76
2023-03-27T20:51:00.638Z,101833.49
2023-03-27T20:53:29.625Z,101827.81
2023-03-27T20:56:02.182Z,101821.39
2023-03-27T20:58:38.310Z,101822.95
2023-03-27T21:01:08.460Z,101824.89
2023-03-27T21:03:39.406Z,101833.27
2023-03-27T21:06:20.402Z,101835.42
2023-03-27T21:08:48.978Z,101828.42
2023-03-27T21:11:17.865Z,101824.66
2023-03-27T21:13:46.418Z,101829.91
2023-03-27T21:16:14.985Z,101840.19
2023-03-27T21:18:43.919Z,101849.21
2023-03-27T21:21:12.215Z,101851.09
2023-03-27T21:23:40.388Z,101844.20
2023-03-27T21:26:09.576Z,101837.70
2023-03-27T21:28:38.017Z,101841.42
2023-03-27T21:31:10.686Z,101847.95
2023-03-27T21:33:39.444Z,101853.14
2023-03-27T21:36:08.303Z,101857.52
2023-03-27T21:38:36.873Z,101854.73
2023-03-27T21:41:06.225Z,101840.67
2023-03-27T21:43:34.920Z,101839.91
2023-03-27T21:46:03.286Z,101854.95
2023-03-27T21:48:32.213Z,101868.61
2023-03-27T21:51:02.506Z,101869.94
2023-03-27T21:53:30.649Z,101857.52
2023-03-27T21:55:59.333Z,101849.27
2023-03-27T21:58:28.392Z,101854.11
2023-03-27T22:00:58.198Z,101868.49
2023-03-27T22:03:28.452Z,101878.34
2023-03-27T22:08:38.414Z,101865.05
2023-03-27T22:11:07.724Z,101863.86
2023-03-27T22:13:37.490Z,101872.70
2023-03-27T22:16:11.513Z,101879.40
2023-03-27T22:18:40.541Z,101874.98
2023-03-27T22:21:13.189Z,101862.58
2023-03-27T22:23:41.411Z,101861.98
2023-03-27T22:26:11.436Z,101868.36
2023-03-27T22:28:39.931Z,101874.60
2023-03-27T22:31:08.536Z,101880.23
2023-03-27T22:33:37.255Z,101875.59
2023-03-27T22:36:11.240Z,101875.11
2023-03-27T22:38:40.752Z,101878.02
2023-03-27T22:41:11.409Z,101877.29
2023-03-27T22:43:40.517Z,101875.52
2023-03-27T22:46:12.861Z,101870.85
2023-03-27T22:48:41.512Z,101875.77
2023-03-27T22:51:12.414Z,101874.32
2023-03-27T22:53:40.748Z,101879.10
2023-03-27T22:56:09.288Z,101882.77
2023-03-27T22:58:37.602Z,101889.45
2023-03-27T23:01:07.414Z,101882.27
2023-03-27T23:03:36.573Z,101873.30
2023-03-27T23:06:05.536Z,101874.45
2023-03-27T23:08:34.160Z,101874.93
2023-03-27T23:11:05.107Z,101880.56
2023-03-27T23:13:34.961Z,101877.22
2023-03-27T23:16:03.170Z,101878.26
2023-03-27T23:18:31.435Z,101871.13
2023-03-27T23:21:02.166Z,101874.33
2023-03-27T23:23:32.407Z,101887.09
2023-03-27T23:26:00.917Z,101893.98
2023-03-27T23:28:33.066Z,101889.34
2023-03-27T23:31:04.439Z,101875.48
2023-03-27T23:33:39.598Z,101876.23
2023-03-27T23:36:14.484Z,101884.48
2023-03-27T23:38:43.423Z,101890.59
2023-03-27T23:41:13.779Z,101888.33
2023-03-27T23:43:42.468Z,101884.09
2023-03-27T23:46:11.405Z,101880.20
2023-03-27T23:48:41.149Z,101892.95
2023-03-27T23:51:14.245Z,101894.88
2023-03-27T23:53:43.035Z,101889.23
2023-03-27T23:56:12.130Z,101883.36
2023-03-27T23:58:40.834Z,101886.18
